Time;durP1;ratioP1;P1;durP2;ratioP2;P2;SDS_P1;SDS_P2;PMS_P1;PMS_P2;Temp;Humidity;BMP_temperature;BMP_pressure;BME280_temperature;BME280_humidity;BME280_pressure;Samples;Min_cycle;Max_cycle;Signal;HPM_P1;HPM_P2
2021/11/24 00:01:51;;;;;;;10.10;9.40;;;5.40;67.90;;;;;;5053086;28;20044;-88
2021/11/24 00:04:17;;;;;;;9.43;9.03;;;5.40;68.00;;;;;;5053841;28;22727;-89
2021/11/24 00:06:43;;;;;;;9.70;9.20;;;5.40;68.30;;;;;;5036494;28;20045;-89
2021/11/24 00:09:09;;;;;;;9.03;8.63;;;5.30;68.20;;;;;;5046263;28;20030;-89
2021/11/24 00:11:35;;;;;;;9.87;9.30;;;5.30;68.30;;;;;;5060700;28;20060;-90
2021/11/24 00:14:01;;;;;;;9.20;8.80;;;5.30;68.30;;;;;;5054106;28;20063;-89
2021/11/24 00:16:27;;;;;;;9.80;9.20;;;5.30;68.30;;;;;;5052749;28;20037;-89
2021/11/24 00:18:53;;;;;;;9.30;8.90;;;5.30;68.50;;;;;;5053447;28;20389;-89
2021/11/24 00:21:20;;;;;;;8.90;8.50;;;5.30;68.60;;;;;;5052613;28;20025;-89
2021/11/24 00:23:46;;;;;;;9.23;8.73;;;5.30;68.70;;;;;;5053631;28;20056;-89
2021/11/24 00:26:13;;;;;;;8.57;8.17;;;5.30;68.70;;;;;;5051054;28;20025;-88
2021/11/24 00:28:39;;;;;;;8.90;8.50;;;5.20;68.70;;;;;;5051002;28;20036;-89
2021/11/24 00:31:06;;;;;;;9.77;9.27;;;5.20;68.70;;;;;;5056222;28;20037;-89
2021/11/24 00:33:33;;;;;;;8.80;8.40;;;5.20;68.90;;;;;;5053529;28;20425;-88
2021/11/24 00:36:00;;;;;;;10.10;9.17;;;5.20;69.10;;;;;;5059457;28;20033;-89
2021/11/24 00:38:26;;;;;;;8.63;8.23;;;5.20;69.40;;;;;;5045396;28;20033;-89
2021/11/24 00:40:52;;;;;;;8.60;8.20;;;5.10;69.40;;;;;;5052627;28;20028;-87
2021/11/24 00:43:21;;;;;;;8.50;8.10;;;5.10;69.70;;;;;;5054430;28;20052;-90
2021/11/24 00:45:48;;;;;;;9.13;8.73;;;5.10;69.80;;;;;;5052044;28;20041;-89
2021/11/24 00:48:14;;;;;;;9.03;8.60;;;5.10;70.00;;;;;;5052071;28;20029;-88
2021/11/24 00:50:40;;;;;;;8.47;8.07;;;5.10;70.10;;;;;;5052961;28;20044;-89
2021/11/24 00:53:06;;;;;;;11.03;8.67;;;5.10;70.00;;;;;;5075853;28;20496;-88
2021/11/24 00:55:32;;;;;;;9.43;8.93;;;5.00;70.00;;;;;;5054003;28;20255;-88
2021/11/24 00:57:58;;;;;;;8.23;7.83;;;5.00;70.10;;;;;;5052710;28;20036;-89
2021/11/24 01:00:25;;;;;;;9.03;8.63;;;5.00;70.20;;;;;;5052366;28;20033;-89
2021/11/24 01:02:51;;;;;;;8.53;8.13;;;5.00;70.30;;;;;;5036024;28;20049;-88
2021/11/24 01:05:17;;;;;;;8.90;8.50;;;5.00;70.50;;;;;;5051513;28;20028;-88
2021/11/24 01:07:43;;;;;;;8.60;8.20;;;4.90;70.60;;;;;;5052640;28;20032;-89
2021/11/24 01:10:10;;;;;;;9.40;9.00;;;4.90;70.90;;;;;;5068392;28;20025;-89
2021/11/24 01:12:36;;;;;;;8.63;8.23;;;4.90;71.20;;;;;;5047688;28;20033;-90
2021/11/24 01:15:03;;;;;;;9.23;8.83;;;4.80;71.30;;;;;;5045867;28;20498;-89
2021/11/24 01:17:29;;;;;;;10.10;9.60;;;4.80;71.50;;;;;;5077628;28;20501;-89
2021/11/24 01:19:56;;;;;;;9.50;9.10;;;4.80;71.60;;;;;;5053174;28;20021;-90
2021/11/24 01:22:22;;;;;;;10.13;9.63;;;4.80;71.70;;;;;;5049219;28;20029;-90
2021/11/24 01:24:48;;;;;;;11.13;10.17;;;4.80;71.90;;;;;;5052584;28;20029;-90
2021/11/24 01:27:14;;;;;;;10.20;9.70;;;4.80;71.90;;;;;;5053526;28;20021;-89
2021/11/24 01:29:40;;;;;;;9.40;9.00;;;4.80;71.80;;;;;;5053242;28;20033;-91
2021/11/24 01:32:06;;;;;;;9.77;9.37;;;4.80;71.70;;;;;;5075339;28;20053;-89
2021/11/24 01:34:32;;;;;;;10.77;10.27;;;4.80;71.70;;;;;;5083991;28;20033;-90
2021/11/24 01:36:58;;;;;;;9.63;9.23;;;4.80;71.70;;;;;;5052418;28;20037;-90
2021/11/24 01:39:24;;;;;;;10.60;10.10;;;4.80;71.80;;;;;;5052757;28;20028;-89
2021/11/24 01:41:51;;;;;;;10.40;9.90;;;4.80;71.80;;;;;;5048130;28;20036;-90
2021/11/24 01:44:21;;;;;;;10.43;9.93;;;4.80;71.80;;;;;;5052357;28;20478;-91
2021/11/24 01:46:59;;;;;;;10.43;9.93;;;4.80;71.90;;;;;;5057151;28;20036;-90
2021/11/24 01:49:26;;;;;;;17.33;16.10;;;4.80;71.90;;;;;;5036272;28;20032;-90
2021/11/24 01:51:52;;;;;;;11.20;10.60;;;4.80;72.00;;;;;;5052243;28;20047;-90
2021/11/24 01:54:18;;;;;;;10.30;9.80;;;4.80;72.00;;;;;;5049373;28;20024;-89
2021/11/24 01:56:45;;;;;;;10.83;10.33;;;4.80;72.00;;;;;;5083198;28;20033;-90
2021/11/24 01:59:12;;;;;;;10.60;10.10;;;4.80;72.20;;;;;;5051188;28;20044;-90
2021/11/24 02:01:39;;;;;;;9.87;9.37;;;4.80;72.40;;;;;;5050162;28;20033;-90
2021/11/24 02:04:05;;;;;;;10.63;10.13;;;4.80;72.40;;;;;;5052911;28;20040;-90
2021/11/24 02:06:31;;;;;;;11.27;10.43;;;4.80;72.40;;;;;;5033334;28;20501;-90
2021/11/24 02:08:57;;;;;;;10.23;9.73;;;4.90;72.40;;;;;;5034854;28;20050;-90
2021/11/24 02:11:23;;;;;;;10.60;10.10;;;4.80;73.20;;;;;;5050159;28;20043;-90
2021/11/24 02:13:49;;;;;;;10.43;9.93;;;4.90;72.40;;;;;;5056764;28;20037;-89
2021/11/24 02:16:16;;;;;;;10.13;9.53;;;4.80;72.30;;;;;;5049436;28;20033;-89
2021/11/24 02:18:42;;;;;;;9.87;9.47;;;4.80;72.30;;;;;;5035383;28;20040;-91
2021/11/24 02:21:08;;;;;;;10.00;9.50;;;4.80;72.40;;;;;;5061805;28;20039;-90
2021/11/24 02:23:34;;;;;;;9.87;9.43;;;4.80;72.40;;;;;;5049305;28;20044;-91
2021/11/24 02:26:00;;;;;;;10.40;9.90;;;4.80;72.50;;;;;;5058676;28;20442;-90
2021/11/24 02:28:26;;;;;;;10.30;9.80;;;4.80;72.50;;;;;;5051890;28;20029;-89
2021/11/24 02:30:52;;;;;;;9.60;9.17;;;4.80;72.80;;;;;;5050766;28;20044;-92
2021/11/24 02:33:18;;;;;;;9.07;8.67;;;4.70;72.90;;;;;;5049364;28;20037;-90
2021/11/24 02:35:44;;;;;;;9.00;8.50;;;4.70;73.10;;;;;;5051953;28;20033;-90
2021/11/24 02:38:14;;;;;;;8.90;8.50;;;4.70;73.10;;;;;;5050578;28;20044;-88
2021/11/24 02:40:41;;;;;;;9.43;8.93;;;4.70;73.30;;;;;;5051818;28;20036;-90
2021/11/24 02:43:09;;;;;;;9.43;8.83;;;4.70;73.40;;;;;;5071892;28;21177;-90
2021/11/24 02:45:35;;;;;;;8.60;8.20;;;4.70;73.40;;;;;;5052236;28;20375;-90
2021/11/24 02:48:02;;;;;;;8.30;7.90;;;4.70;74.30;;;;;;5050803;28;20028;-90
2021/11/24 02:50:28;;;;;;;8.03;7.63;;;4.60;73.60;;;;;;5027325;28;20498;-91
2021/11/24 02:52:54;;;;;;;8.80;8.40;;;4.60;73.80;;;;;;5013590;28;20049;-90
2021/11/24 02:55:20;;;;;;;9.20;8.80;;;4.60;73.90;;;;;;5051472;28;20032;-90
2021/11/24 02:57:48;;;;;;;9.00;8.60;;;4.60;74.00;;;;;;5050943;28;20032;-91
2021/11/24 03:00:18;;;;;;;10.20;9.70;;;4.60;74.10;;;;;;5051162;28;20040;-89
2021/11/24 03:02:45;;;;;;;9.50;9.10;;;4.60;74.20;;;;;;5046112;28;20064;-90
2021/11/24 03:05:11;;;;;;;10.90;10.40;;;4.60;74.30;;;;;;5037936;28;20039;-90
2021/11/24 03:07:38;;;;;;;9.03;8.63;;;4.60;74.50;;;;;;5047216;28;20040;-90
2021/11/24 03:10:04;;;;;;;9.47;8.97;;;4.50;74.70;;;;;;5048984;28;20029;-90
2021/11/24 03:12:31;;;;;;;9.17;8.77;;;4.50;74.80;;;;;;5047598;28;20063;-90
2021/11/24 03:14:57;;;;;;;8.90;8.50;;;4.50;74.80;;;;;;5054003;28;20496;-89
2021/11/24 03:17:23;;;;;;;9.17;8.77;;;4.50;74.70;;;;;;5051671;28;20037;-90
2021/11/24 03:19:49;;;;;;;9.80;9.20;;;4.60;74.80;;;;;;5050052;28;20036;-89
2021/11/24 03:22:22;;;;;;;9.03;8.63;;;4.50;74.70;;;;;;5051983;28;20052;-90
2021/11/24 03:24:56;;;;;;;12.97;9.77;;;4.50;74.70;;;;;;5057479;28;20033;-90
2021/11/24 03:27:26;;;;;;;8.70;8.30;;;4.50;74.80;;;;;;5041694;28;20055;-90
2021/11/24 03:29:52;;;;;;;9.35;8.95;;;4.50;74.80;;;;;;5041778;28;20037;-90
2021/11/24 03:32:19;;;;;;;9.83;9.33;;;4.50;74.80;;;;;;5051892;28;20041;-90
2021/11/24 03:34:45;;;;;;;9.83;9.33;;;4.50;74.80;;;;;;5036675;28;20040;-91
2021/11/24 03:37:11;;;;;;;9.50;9.00;;;4.50;74.80;;;;;;5056174;28;20406;-91
2021/11/24 03:39:37;;;;;;;8.67;8.27;;;4.50;74.70;;;;;;5055123;28;20033;-91
2021/11/24 03:42:03;;;;;;;9.27;8.87;;;4.50;74.80;;;;;;5036255;28;20048;-90
2021/11/24 03:44:29;;;;;;;8.40;8.00;;;4.50;74.70;;;;;;5034403;28;20042;-91
2021/11/24 03:46:55;;;;;;;8.90;8.50;;;4.40;74.70;;;;;;5061482;28;20033;-90
2021/11/24 03:49:22;;;;;;;9.33;8.90;;;4.40;74.70;;;;;;5038291;28;20048;-90
2021/11/24 03:51:49;;;;;;;8.93;8.53;;;4.40;74.70;;;;;;5054351;28;20037;-91
2021/11/24 03:54:15;;;;;;;10.07;9.53;;;4.40;74.70;;;;;;5070066;28;20036;-91
2021/11/24 03:56:41;;;;;;;9.37;8.87;;;4.40;74.90;;;;;;5054086;28;20040;-90
2021/11/24 03:59:07;;;;;;;8.60;8.20;;;4.40;75.70;;;;;;5053350;28;20041;-91
2021/11/24 04:01:33;;;;;;;9.40;8.87;;;4.40;75.10;;;;;;5053893;28;20037;-90
2021/11/24 04:03:59;;;;;;;9.00;8.60;;;4.30;75.10;;;;;;5056059;28;20032;-91
2021/11/24 04:06:26;;;;;;;9.00;8.60;;;4.30;75.20;;;;;;5055070;28;20036;-90
2021/11/24 04:08:53;;;;;;;9.17;8.77;;;4.30;75.20;;;;;;5055679;28;20039;-90
2021/11/24 04:11:19;;;;;;;10.37;9.77;;;4.30;75.10;;;;;;5033513;28;20042;-90
2021/11/24 04:13:45;;;;;;;8.90;8.50;;;4.30;75.30;;;;;;5053879;28;20140;-91
2021/11/24 04:16:11;;;;;;;9.33;8.83;;;4.30;75.20;;;;;;5054155;28;20025;-89
2021/11/24 04:18:37;;;;;;;9.13;8.73;;;4.30;75.20;;;;;;5037125;28;20048;-91
2021/11/24 04:21:03;;;;;;;9.70;9.10;;;4.30;75.20;;;;;;5054122;28;20037;-91
2021/11/24 04:23:29;;;;;;;10.37;9.77;;;4.30;75.20;;;;;;5053506;28;20036;-91
2021/11/24 04:25:55;;;;;;;9.07;8.67;;;4.30;75.20;;;;;;5054521;28;20029;-91
2021/11/24 04:28:21;;;;;;;8.97;8.57;;;4.20;75.10;;;;;;5053726;28;20398;-91
2021/11/24 04:30:47;;;;;;;8.90;8.40;;;4.30;75.10;;;;;;5053706;28;20036;-91
2021/11/24 04:33:14;;;;;;;9.27;8.77;;;4.30;75.10;;;;;;5068517;28;20041;-90
2021/11/24 04:35:40;;;;;;;9.40;9.00;;;4.30;75.10;;;;;;5054211;28;20043;-91
2021/11/24 04:38:06;;;;;;;8.93;8.53;;;4.30;75.10;;;;;;5034340;28;20045;-91
2021/11/24 04:40:32;;;;;;;9.13;8.53;;;4.20;75.10;;;;;;5053146;28;20040;-91
2021/11/24 04:43:02;;;;;;;8.63;8.23;;;4.30;75.30;;;;;;5035005;28;20037;-91
2021/11/24 04:45:28;;;;;;;7.67;7.33;;;4.20;75.40;;;;;;5054022;28;20059;-91
2021/11/24 04:47:54;;;;;;;9.47;8.67;;;4.20;75.50;;;;;;5053525;28;20473;-91
2021/11/24 04:50:20;;;;;;;8.17;7.77;;;4.20;75.70;;;;;;5087487;28;20044;-91
2021/11/24 04:52:47;;;;;;;8.50;8.10;;;4.20;75.70;;;;;;5052226;28;20678;-90
2021/11/24 04:55:14;;;;;;;9.43;8.93;;;4.20;75.70;;;;;;5054593;28;20509;-91
2021/11/24 04:57:40;;;;;;;8.90;8.50;;;4.20;75.90;;;;;;5052710;28;20036;-91
2021/11/24 05:00:10;;;;;;;9.10;8.70;;;4.10;75.80;;;;;;5052763;28;20036;-91
2021/11/24 05:02:36;;;;;;;9.00;8.50;;;4.10;75.80;;;;;;5052404;28;20462;-91
2021/11/24 05:05:02;;;;;;;9.77;9.17;;;4.10;75.90;;;;;;5054556;28;20029;-90
2021/11/24 05:07:29;;;;;;;9.60;8.73;;;4.10;75.90;;;;;;5053050;28;20017;-90
2021/11/24 05:09:55;;;;;;;8.70;8.30;;;4.10;75.80;;;;;;5055363;28;20028;-91
2021/11/24 05:12:21;;;;;;;9.00;8.50;;;4.10;75.80;;;;;;5052375;28;20033;-90
2021/11/24 05:14:49;;;;;;;8.93;8.53;;;4.10;75.80;;;;;;5052226;28;20509;-91
2021/11/24 05:17:17;;;;;;;10.10;9.30;;;4.10;75.90;;;;;;5051625;28;20077;-91
2021/11/24 05:19:47;;;;;;;9.30;8.80;;;4.10;76.00;;;;;;5060935;28;20028;-91
2021/11/24 05:22:14;;;;;;;9.97;9.47;;;4.10;76.00;;;;;;5052288;28;20040;-91
2021/11/24 05:24:41;;;;;;;8.70;8.30;;;4.10;76.20;;;;;;5017232;28;20532;-90
2021/11/24 05:27:07;;;;;;;8.63;8.20;;;4.10;76.20;;;;;;5049841;28;20037;-90
2021/11/24 05:29:33;;;;;;;8.80;8.20;;;4.10;76.20;;;;;;5064078;28;20474;-90
2021/11/24 05:31:59;;;;;;;9.20;8.80;;;4.00;76.20;;;;;;5050793;28;20049;-90
2021/11/24 05:34:25;;;;;;;8.23;7.83;;;4.00;76.20;;;;;;5050742;28;20055;-91
2021/11/24 05:36:51;;;;;;;10.30;9.50;;;4.10;76.20;;;;;;5053222;28;20033;-90
2021/11/24 05:39:18;;;;;;;8.30;7.87;;;4.00;76.20;;;;;;5050518;28;20033;-91
2021/11/24 05:41:44;;;;;;;8.57;8.17;;;4.00;76.20;;;;;;5050262;28;20405;-90
2021/11/24 05:44:17;;;;;;;8.40;8.00;;;4.00;76.20;;;;;;5066967;28;20033;-91
2021/11/24 05:46:47;;;;;;;7.97;7.57;;;4.00;76.20;;;;;;5067645;28;20508;-90
2021/11/24 05:49:13;;;;;;;9.33;8.73;;;4.00;76.30;;;;;;5036975;28;20065;-90
2021/11/24 05:51:40;;;;;;;7.97;7.57;;;4.00;76.30;;;;;;5049837;28;20040;-89
2021/11/24 05:54:06;;;;;;;7.90;7.40;;;4.00;76.30;;;;;;5071137;28;20055;-89
2021/11/24 05:56:34;;;;;;;8.50;8.10;;;4.00;76.40;;;;;;5069934;28;20024;-90
2021/11/24 05:59:00;;;;;;;8.07;7.47;;;4.00;76.40;;;;;;5069612;28;20029;-90
2021/11/24 06:01:26;;;;;;;8.47;8.07;;;4.00;76.50;;;;;;5058331;28;20037;-91
2021/11/24 06:03:52;;;;;;;8.33;7.93;;;4.00;76.40;;;;;;5052723;28;20025;-91
2021/11/24 06:06:18;;;;;;;9.20;8.50;;;4.00;76.50;;;;;;5059303;28;20021;-90
2021/11/24 06:08:45;;;;;;;7.70;7.40;;;4.00;76.50;;;;;;5069054;28;20041;-90
2021/11/24 06:11:11;;;;;;;8.00;7.60;;;4.00;76.70;;;;;;5061658;28;20036;-87
2021/11/24 06:13:37;;;;;;;9.30;8.70;;;3.90;76.70;;;;;;5046738;28;20175;-88
2021/11/24 06:16:03;;;;;;;9.20;8.77;;;3.90;76.80;;;;;;5048938;28;20219;-89
2021/11/24 06:18:29;;;;;;;9.37;8.67;;;3.90;76.90;;;;;;5049482;28;20521;-86
2021/11/24 06:20:55;;;;;;;8.20;7.73;;;3.90;77.00;;;;;;5050881;28;20040;-84
2021/11/24 06:23:21;;;;;;;8.00;7.60;;;3.90;77.10;;;;;;5049653;28;20036;-84
2021/11/24 06:25:47;;;;;;;8.20;7.80;;;3.90;77.10;;;;;;5050805;28;20028;-84
2021/11/24 06:28:13;;;;;;;7.50;7.20;;;3.90;77.10;;;;;;5052726;28;20029;-84
2021/11/24 06:30:40;;;;;;;7.47;7.17;;;3.90;77.20;;;;;;5033651;28;20478;-87
2021/11/24 06:33:06;;;;;;;7.83;7.43;;;3.90;77.20;;;;;;5049023;28;20045;-87
2021/11/24 06:35:32;;;;;;;8.60;8.17;;;3.90;77.30;;;;;;5050242;28;20025;-86
2021/11/24 06:37:58;;;;;;;8.10;7.70;;;3.90;77.40;;;;;;5049375;28;20037;-84
2021/11/24 06:40:24;;;;;;;7.60;7.27;;;3.80;77.50;;;;;;5051312;28;20025;-86
2021/11/24 06:42:50;;;;;;;10.27;9.77;;;3.80;77.50;;;;;;5049842;28;20037;-85
2021/11/24 06:45:17;;;;;;;7.90;7.50;;;3.80;77.50;;;;;;5049087;28;20393;-87
2021/11/24 06:47:43;;;;;;;8.33;7.93;;;3.80;77.50;;;;;;5049821;28;20490;-84
2021/11/24 06:50:10;;;;;;;8.40;7.93;;;3.80;77.50;;;;;;5050025;28;20032;-88
2021/11/24 06:52:36;;;;;;;8.30;7.90;;;3.80;77.60;;;;;;5048126;28;20520;-86
2021/11/24 06:55:03;;;;;;;8.33;7.83;;;3.80;77.60;;;;;;5051003;28;20378;-86
2021/11/24 06:57:29;;;;;;;8.47;8.07;;;3.80;77.70;;;;;;5049603;28;20033;-84
2021/11/24 06:59:55;;;;;;;7.23;6.93;;;3.80;77.70;;;;;;5054506;28;20470;-86
2021/11/24 07:02:21;;;;;;;8.50;7.80;;;3.80;77.70;;;;;;5052674;28;20037;-84
2021/11/24 07:04:47;;;;;;;8.27;7.87;;;3.80;77.70;;;;;;5053945;28;20029;-88
2021/11/24 07:07:13;;;;;;;7.97;7.43;;;3.80;77.80;;;;;;5053208;28;20040;-86
2021/11/24 07:09:40;;;;;;;8.93;8.43;;;3.80;78.00;;;;;;5051376;28;20052;-85
2021/11/24 07:12:08;;;;;;;8.40;8.00;;;3.80;78.20;;;;;;5048271;28;20036;-85
2021/11/24 07:14:34;;;;;;;7.57;7.27;;;3.80;78.20;;;;;;5047731;28;20052;-86
2021/11/24 07:17:00;;;;;;;7.70;7.40;;;3.80;78.10;;;;;;5048611;28;20036;-86
2021/11/24 07:19:27;;;;;;;9.40;8.80;;;3.80;78.20;;;;;;5048175;28;20048;-86
2021/11/24 07:21:53;;;;;;;9.77;8.80;;;3.80;78.30;;;;;;5047355;28;20084;-86
2021/11/24 07:24:19;;;;;;;7.80;7.40;;;3.80;78.40;;;;;;5046694;28;20033;-87
2021/11/24 07:26:45;;;;;;;7.77;7.37;;;3.80;78.40;;;;;;5048077;28;20037;-87
2021/11/24 07:29:12;;;;;;;7.80;7.30;;;3.80;78.30;;;;;;5063800;28;20036;-87
2021/11/24 07:31:38;;;;;;;8.33;7.93;;;3.80;78.20;;;;;;5046429;28;20037;-87
2021/11/24 07:34:04;;;;;;;8.63;8.10;;;3.80;78.20;;;;;;5050935;28;20041;-86
2021/11/24 07:36:30;;;;;;;9.27;8.77;;;3.80;78.00;;;;;;5054216;28;20040;-83
2021/11/24 07:38:57;;;;;;;9.10;8.70;;;3.90;78.00;;;;;;5053186;28;20502;-85
2021/11/24 07:41:23;;;;;;;7.97;7.57;;;3.90;77.90;;;;;;5053032;28;20486;-85
2021/11/24 07:43:49;;;;;;;9.30;8.80;;;3.90;77.70;;;;;;5052554;28;20037;-85
2021/11/24 07:46:16;;;;;;;8.33;7.93;;;3.90;77.70;;;;;;5054008;28;20037;-87
2021/11/24 07:48:42;;;;;;;9.13;8.63;;;4.00;77.60;;;;;;5016778;28;20045;-90
2021/11/24 07:51:10;;;;;;;9.50;9.00;;;4.00;77.60;;;;;;5051711;28;20041;-88
2021/11/24 07:53:37;;;;;;;8.27;7.87;;;4.00;77.60;;;;;;5055702;28;20052;-85
2021/11/24 07:56:03;;;;;;;9.57;9.07;;;4.00;77.60;;;;;;5036862;28;20045;-87
2021/11/24 07:58:29;;;;;;;8.10;7.70;;;4.00;77.60;;;;;;5085469;28;20048;-88
2021/11/24 08:00:55;;;;;;;8.33;7.93;;;4.00;77.60;;;;;;5053038;28;20033;-86
2021/11/24 08:03:21;;;;;;;8.57;8.17;;;3.90;77.60;;;;;;5053250;28;20033;-88
2021/11/24 08:05:48;;;;;;;9.00;8.50;;;3.90;77.70;;;;;;5087119;28;20040;-87
2021/11/24 08:08:14;;;;;;;28.17;7.93;;;3.90;77.70;;;;;;5089086;28;20072;-89
2021/11/24 08:10:40;;;;;;;8.50;8.10;;;3.90;77.70;;;;;;5053121;28;20029;-82
2021/11/24 08:13:06;;;;;;;10.13;9.40;;;3.90;77.70;;;;;;5051397;28;20367;-84
2021/11/24 08:15:32;;;;;;;8.73;8.27;;;4.00;77.80;;;;;;5050621;28;20056;-83
2021/11/24 08:17:59;;;;;;;8.10;7.70;;;4.00;77.70;;;;;;5052291;28;20020;-83
2021/11/24 08:20:25;;;;;;;14.83;8.57;;;4.00;77.60;;;;;;5053544;28;20485;-83
2021/11/24 08:22:51;;;;;;;8.13;7.73;;;4.10;77.70;;;;;;5035704;28;20032;-85
2021/11/24 08:25:17;;;;;;;10.33;9.53;;;4.10;77.60;;;;;;5037033;28;20037;-87
2021/11/24 08:27:43;;;;;;;9.73;9.10;;;4.10;77.60;;;;;;5053085;28;20036;-88
2021/11/24 08:30:10;;;;;;;8.83;8.30;;;4.10;77.70;;;;;;5053432;28;20490;-76
2021/11/24 08:32:36;;;;;;;8.57;8.03;;;4.20;77.70;;;;;;5054853;28;20055;-87
2021/11/24 08:35:04;;;;;;;8.20;7.80;;;4.20;77.70;;;;;;5053951;28;20045;-88
2021/11/24 08:37:30;;;;;;;8.40;8.00;;;4.20;77.70;;;;;;5053594;28;20373;-84
2021/11/24 08:39:56;;;;;;;8.47;8.07;;;4.30;77.80;;;;;;5053377;28;20040;-87
2021/11/24 08:42:25;;;;;;;8.47;8.07;;;4.30;77.80;;;;;;5070174;28;20374;-89
2021/11/24 08:44:52;;;;;;;8.50;7.83;;;4.40;77.80;;;;;;5058210;28;20029;-91
2021/11/24 08:47:19;;;;;;;8.97;8.47;;;4.50;77.90;;;;;;5089844;28;20033;-86
2021/11/24 08:49:45;;;;;;;8.87;8.47;;;4.70;77.70;;;;;;5053348;28;20021;-88
2021/11/24 08:52:11;;;;;;;9.47;9.00;;;4.80;77.40;;;;;;5068703;28;20363;-84
2021/11/24 08:54:39;;;;;;;9.27;8.87;;;4.80;77.20;;;;;;5049559;28;20036;-85
2021/11/24 08:57:05;;;;;;;8.40;8.00;;;4.80;77.20;;;;;;5051580;28;20029;-86
2021/11/24 08:59:32;;;;;;;9.33;8.83;;;4.80;77.20;;;;;;5053121;28;20104;-83
2021/11/24 09:01:58;;;;;;;9.47;9.00;;;4.80;77.20;;;;;;5053529;28;20597;-87
2021/11/24 09:04:24;;;;;;;16.97;8.97;;;4.80;77.20;;;;;;5051483;28;20052;-85
2021/11/24 09:06:50;;;;;;;9.40;9.00;;;4.90;77.20;;;;;;5053175;28;20036;-87
2021/11/24 09:09:16;;;;;;;9.10;8.70;;;4.90;77.10;;;;;;5052914;28;20025;-87
2021/11/24 09:11:42;;;;;;;8.90;8.40;;;5.00;77.20;;;;;;5052761;28;20029;-87
2021/11/24 09:14:08;;;;;;;16.23;8.33;;;5.00;77.20;;;;;;5051018;28;20056;-88
2021/11/24 09:16:34;;;;;;;9.63;8.90;;;5.00;77.10;;;;;;5050996;28;20032;-87
2021/11/24 09:19:01;;;;;;;9.20;8.80;;;5.00;77.10;;;;;;5052535;28;20033;-88
2021/11/24 09:21:27;;;;;;;9.53;9.03;;;5.10;77.20;;;;;;5030397;28;20037;-89
2021/11/24 09:23:53;;;;;;;9.50;9.00;;;5.20;77.00;;;;;;5048218;28;20077;-89
2021/11/24 09:28:51;;;;;;;10.27;9.67;;;5.50;76.70;;;;;;5055410;28;20473;-86
2021/11/24 09:31:17;;;;;;;9.53;9.07;;;5.60;76.40;;;;;;5083719;28;20037;-88
2021/11/24 09:33:44;;;;;;;10.93;10.40;;;5.70;76.20;;;;;;5051512;28;20477;-88
2021/11/24 09:36:10;;;;;;;10.13;9.30;;;5.70;76.10;;;;;;5051937;28;20029;-87
2021/11/24 09:38:36;;;;;;;8.47;8.07;;;5.70;76.10;;;;;;5050194;28;20036;-88
2021/11/24 09:41:05;;;;;;;11.73;11.03;;;5.70;76.10;;;;;;5051682;28;20021;-88
2021/11/24 09:43:34;;;;;;;8.47;8.07;;;5.70;76.20;;;;;;5049060;28;20113;-85
2021/11/24 09:46:01;;;;;;;9.57;9.17;;;5.80;76.20;;;;;;5050302;28;20041;-90
2021/11/24 09:48:27;;;;;;;11.00;10.40;;;5.80;76.30;;;;;;5053574;28;20037;-89
2021/11/24 09:50:55;;;;;;;10.10;9.53;;;5.80;76.20;;;;;;5052107;28;20378;-85
2021/11/24 09:53:21;;;;;;;9.63;9.13;;;5.80;76.10;;;;;;5049257;28;20036;-84
2021/11/24 09:55:48;;;;;;;9.63;9.23;;;5.80;76.10;;;;;;5052358;28;20025;-90
2021/11/24 09:58:15;;;;;;;8.07;7.67;;;5.80;76.10;;;;;;5053348;28;20051;-91
2021/11/24 10:00:42;;;;;;;9.03;8.63;;;5.80;76.10;;;;;;5050258;28;20040;-91
2021/11/24 10:03:08;;;;;;;9.80;9.20;;;5.80;76.30;;;;;;5050032;28;20502;-92
2021/11/24 10:05:35;;;;;;;10.03;9.53;;;5.90;76.30;;;;;;5033163;28;20039;-91
2021/11/24 10:08:01;;;;;;;9.40;8.90;;;6.10;76.10;;;;;;5051370;28;20032;-88
2021/11/24 10:10:27;;;;;;;9.73;9.23;;;6.20;75.80;;;;;;5037860;28;20470;-90
2021/11/24 10:12:54;;;;;;;10.00;9.40;;;6.30;75.70;;;;;;5053360;28;20040;-90
2021/11/24 10:15:39;;;;;;;10.97;10.37;;;6.40;75.60;;;;;;5054551;28;20049;-91
2021/11/24 10:18:17;;;;;;;9.40;8.90;;;6.50;75.30;;;;;;5083512;28;20040;-91
2021/11/24 10:20:56;;;;;;;9.47;8.90;;;6.50;75.10;;;;;;5052936;28;20032;-90
2021/11/24 10:23:27;;;;;;;9.73;9.33;;;6.40;75.10;;;;;;5052742;28;20043;-90
2021/11/24 10:25:54;;;;;;;9.37;8.97;;;6.30;75.10;;;;;;5053244;28;20021;-90
2021/11/24 10:28:31;;;;;;;9.17;8.73;;;6.30;75.20;;;;;;5053758;28;20325;-91
2021/11/24 10:30:57;;;;;;;9.00;8.60;;;6.20;75.20;;;;;;5045303;28;20037;-87
2021/11/24 10:33:29;;;;;;;29.70;28.07;;;6.20;75.20;;;;;;5049652;28;20047;-91
2021/11/24 10:36:06;;;;;;;9.50;9.00;;;6.30;75.00;;;;;;5049801;28;20033;-75
2021/11/24 10:38:43;;;;;;;10.00;9.50;;;6.30;74.80;;;;;;5049719;28;20037;-92
2021/11/24 10:41:11;;;;;;;9.63;9.23;;;6.30;74.80;;;;;;5042216;28;20025;-90
2021/11/24 10:43:42;;;;;;;8.63;8.20;;;6.40;74.60;;;;;;5049920;28;20033;-89
2021/11/24 10:46:09;;;;;;;9.38;8.98;;;6.50;74.60;;;;;;5050740;28;20041;-93
2021/11/24 10:48:35;;;;;;;8.87;8.47;;;6.60;74.40;;;;;;5050235;28;20044;-93
2021/11/24 10:51:02;;;;;;;9.40;8.90;;;6.70;74.20;;;;;;5050014;28;20040;-91
2021/11/24 10:53:28;;;;;;;8.87;8.47;;;6.80;74.10;;;;;;5050732;28;20041;-92
2021/11/24 10:55:54;;;;;;;9.77;9.07;;;6.90;73.80;;;;;;5050794;28;20389;-92
2021/11/24 10:58:26;;;;;;;9.70;9.17;;;7.00;73.60;;;;;;5049906;28;20049;-91
2021/11/24 11:00:54;;;;;;;10.68;10.18;;;7.10;73.40;;;;;;5049362;28;20037;-86
2021/11/24 11:03:25;;;;;;;11.90;11.30;;;7.10;73.30;;;;;;5051193;28;20028;-92
2021/11/24 11:05:53;;;;;;;12.70;12.10;;;7.00;73.30;;;;;;5034462;28;20398;-90
2021/11/24 11:08:19;;;;;;;10.37;9.87;;;7.00;73.30;;;;;;5049823;28;20390;-85
2021/11/24 11:10:47;;;;;;;9.50;9.10;;;6.90;73.30;;;;;;5049943;28;20025;-86
2021/11/24 11:13:15;;;;;;;13.03;12.43;;;7.00;73.40;;;;;;5049368;28;20025;-87
2021/11/24 11:15:41;;;;;;;15.10;13.77;;;7.10;73.20;;;;;;5047659;28;20059;-87
2021/11/24 11:18:11;;;;;;;11.53;10.93;;;7.20;72.90;;;;;;5050823;28;20025;-85
2021/11/24 11:20:41;;;;;;;10.17;9.67;;;7.10;72.70;;;;;;5050804;28;20337;-86
2021/11/24 11:23:14;;;;;;;10.50;10.00;;;7.00;72.80;;;;;;5048892;28;20020;-86
2021/11/24 11:26:07;;;;;;;9.60;9.20;;;7.00;73.00;;;;;;5048820;28;20400;-91
2021/11/24 11:28:36;;;;;;;10.43;9.93;;;6.90;72.90;;;;;;5033424;28;20045;-85
2021/11/24 11:31:02;;;;;;;10.00;9.50;;;6.90;73.10;;;;;;5048265;28;20044;-85
2021/11/24 11:33:32;;;;;;;9.90;9.40;;;6.90;73.10;;;;;;5014341;28;20045;-87
2021/11/24 11:36:01;;;;;;;10.83;10.23;;;7.00;73.00;;;;;;5050144;28;20033;-87
2021/11/24 11:38:27;;;;;;;11.30;10.70;;;7.00;72.70;;;;;;5048573;28;20055;-90
2021/11/24 11:40:53;;;;;;;11.40;10.80;;;7.10;72.70;;;;;;5050712;28;20481;-81
2021/11/24 11:43:24;;;;;;;10.63;10.03;;;7.10;72.60;;;;;;5050595;28;20060;-90
2021/11/24 11:45:50;;;;;;;10.33;9.70;;;7.20;73.50;;;;;;5036122;28;20040;-90
2021/11/24 11:48:34;;;;;;;10.30;9.80;;;7.20;72.70;;;;;;5085023;28;20524;-86
2021/11/24 11:51:02;;;;;;;11.60;11.07;;;7.40;72.40;;;;;;5033768;28;20144;-91
2021/11/24 11:53:41;;;;;;;10.60;10.10;;;7.50;72.10;;;;;;5047392;28;20431;-90
2021/11/24 11:56:10;;;;;;;9.90;9.40;;;7.60;72.00;;;;;;5052728;28;20029;-92
2021/11/24 11:58:51;;;;;;;10.97;10.47;;;7.70;71.80;;;;;;5053557;28;20025;-92
2021/11/24 12:01:18;;;;;;;10.88;10.38;;;7.90;71.60;;;;;;5055106;28;20022;-92
2021/11/24 12:04:13;;;;;;;10.10;9.60;;;8.00;71.40;;;;;;5073350;28;20040;-86
2021/11/24 12:06:48;;;;;;;10.27;9.77;;;8.00;71.10;;;;;;5050419;28;20029;-90
2021/11/24 12:09:20;;;;;;;10.20;9.70;;;8.00;71.10;;;;;;5053294;28;20389;-91
2021/11/24 12:12:04;;;;;;;10.52;9.93;;;8.00;71.10;;;;;;5052782;28;20028;-91
2021/11/24 12:14:42;;;;;;;9.95;9.45;;;8.10;71.10;;;;;;5054068;28;20037;-90
2021/11/24 12:17:30;;;;;;;10.32;9.82;;;8.10;70.80;;;;;;5053978;28;20029;-90
2021/11/24 12:19:56;;;;;;;15.82;15.05;;;8.10;70.70;;;;;;5054679;28;20024;-88
2021/11/24 12:22:48;;;;;;;23.02;21.98;;;8.10;70.90;;;;;;5084162;28;20045;-89
2021/11/24 12:25:26;;;;;;;13.80;13.20;;;8.00;70.50;;;;;;5051559;28;20044;-82
2021/11/24 12:28:00;;;;;;;11.43;10.93;;;8.00;70.30;;;;;;5054105;28;20024;-89
2021/11/24 12:30:47;;;;;;;11.88;11.27;;;8.10;70.30;;;;;;5053591;28;20033;-88
2021/11/24 12:33:14;;;;;;;11.32;10.82;;;8.20;70.30;;;;;;5051802;28;20048;-89
2021/11/24 12:35:52;;;;;;;11.77;11.27;;;8.20;70.00;;;;;;5052563;28;20049;-88
2021/11/24 12:38:19;;;;;;;12.25;11.52;;;8.20;70.00;;;;;;5051949;28;20033;-87
2021/11/24 12:40:46;;;;;;;11.98;11.38;;;8.20;69.90;;;;;;5052670;28;20092;-87
2021/11/24 12:43:18;;;;;;;12.13;11.57;;;8.20;69.80;;;;;;5034604;28;20048;-87
2021/11/24 12:46:04;;;;;;;12.48;11.88;;;8.20;70.00;;;;;;5050654;28;20033;-88
2021/11/24 12:48:50;;;;;;;13.20;12.50;;;8.10;70.30;;;;;;5052741;28;20040;-88
2021/11/24 12:51:22;;;;;;;12.25;11.65;;;8.00;70.30;;;;;;5043753;28;20041;-88
2021/11/24 12:53:49;;;;;;;;;;;8.00;70.40;;;;;;5053083;28;20504;-88
2021/11/24 12:56:15;;;;;;;13.07;12.47;;;8.00;70.50;;;;;;5066966;28;19909;-89
2021/11/24 12:58:42;;;;;;;12.07;11.48;;;7.80;70.20;;;;;;5050950;28;20021;-88